^^
Station Historical Data
Daily Summary for January 3, 2017 Units:  English    Metric   Both
« Previous Day
Next Day »
Daily Weekly Monthly Yearly Custom
  High: Low: Average:
Temperature: 42.1 °F 36.7 °F 39.3 °F
Dew Point: 41.0 °F 35.4 °F 38.3 °F
Humidity: 97% 95% 96%
Wind Speed: 5.0mph 0.0mph 0.8mph
Wind Gust: 15.0mph - -
Wind- - South
Pressure: 30.29 in 29.49 in -
Precipitation: 0.73 in    
Historical Graphs
 
 
Tabular Data for January 3, 2017
Time Temperature Dew Point Pressure Wind Wind Speed Wind Gust Humidity Rainfall Rate (Hourly) Conditions
00:00 36.7 °F 35.4 °F 30.29 in Calm   2.0 mph 95% 0.00 in -DZ
00:10 36.8 °F 35.5 °F 30.28 in Calm   1.0 mph 95% 0.00 in -DZ
00:20 36.8 °F 35.5 °F 30.27 in Calm   2.0 mph 95% 0.00 in -DZ
00:30 36.8 °F 35.7 °F 30.26 in Calm   2.0 mph 96% 0.00 in -DZ
00:40 36.8 °F 35.5 °F 30.25 in Calm   2.0 mph 95% 0.01 in -DZ
00:50 36.8 °F 35.8 °F 30.25 in Calm   4.0 mph 96% 0.00 in -DZ
01:00 36.7 °F 35.7 °F 30.25 in Calm   2.0 mph 96% 0.00 in -DZ
01:10 36.7 °F 35.7 °F 30.25 in Calm   3.0 mph 96% 0.00 in -DZ
01:20 36.7 °F 35.7 °F 30.25 in Calm   3.0 mph 96% 0.00 in -DZ
01:30 36.8 °F 35.8 °F 30.25 in Calm   3.0 mph 96% 0.00 in -DZ
01:40 36.8 °F 35.8 °F 30.25 in Calm   2.0 mph 96% 0.00 in -DZ
01:50 36.9 °F 35.9 °F 30.26 in Calm   2.0 mph 96% 0.00 in -DZ
02:00 36.9 °F 35.9 °F 30.25 in Calm   2.0 mph 96% 0.00 in -DZ
02:10 37.0 °F 36.0 °F 30.25 in Calm   2.0 mph 96% 0.00 in -DZ
02:20 37.1 °F 36.1 °F 30.24 in Calm   1.0 mph 96% 0.00 in -DZ
02:30 37.1 °F 36.1 °F 30.24 in Calm   2.0 mph 96% 0.01 in -DZ
02:40 37.1 °F 36.1 °F 30.23 in Calm   3.0 mph 96% 0.00 in -DZ
02:50 37.1 °F 36.1 °F 30.23 in Calm   1.0 mph 96% 0.00 in -DZ
03:00 37.1 °F 36.1 °F 30.23 in Calm   3.0 mph 96% 0.01 in -DZ
03:10 37.2 °F 36.2 °F 30.22 in Calm   5.0 mph 96% 0.00 in -DZ
03:20 37.2 °F 36.2 °F 30.22 in Calm   1.0 mph 96% 0.00 in -DZ
03:30 37.2 °F 36.2 °F 30.21 in Calm   3.0 mph 96% 0.00 in -DZ
03:40 37.2 °F 36.2 °F 30.20 in Calm   3.0 mph 96% 0.00 in -DZ
03:50 37.2 °F 36.2 °F 30.19 in North 1.0 mph 5.0 mph 96% 0.00 in -DZ
04:00 37.2 °F 36.2 °F 30.19 in North 1.0 mph 5.0 mph 96% 0.00 in -DZ
04:10 37.2 °F 36.2 °F 30.18 in North 1.0 mph 4.0 mph 96% 0.00 in -DZ
04:20 37.2 °F 36.2 °F 30.18 in North 2.0 mph 7.0 mph 96% 0.01 in -DZ
04:30 37.3 °F 36.3 °F 30.17 in Calm   5.0 mph 96% 0.00 in -DZ
04:40 37.2 °F 36.2 °F 30.17 in NNE 1.0 mph 5.0 mph 96% 0.00 in -DZ
04:50 37.2 °F 36.2 °F 30.16 in NW 1.0 mph 7.0 mph 96% 0.00 in -DZ
05:00 37.3 °F 36.2 °F 30.16 in Calm   6.0 mph 96% 0.00 in -DZ
05:10 37.3 °F 36.3 °F 30.15 in Calm   3.0 mph 96% 0.00 in -DZ
05:20 37.3 °F 36.2 °F 30.16 in Calm   7.0 mph 96% 0.00 in -DZ
05:30 37.3 °F 36.3 °F 30.15 in Calm   2.0 mph 96% 0.00 in -DZ
05:40 37.4 °F 36.4 °F 30.15 in Calm   3.0 mph 96% 0.00 in -DZ
05:50 37.5 °F 36.5 °F 30.15 in NE 1.0 mph 4.0 mph 96% 0.00 in -DZ
06:00 37.6 °F 36.6 °F 30.14 in NNE 1.0 mph 4.0 mph 96% 0.01 in -DZ
06:10 37.7 °F 36.7 °F 30.14 in ENE 1.0 mph 3.0 mph 96% 0.00 in -DZ
06:20 37.8 °F 36.8 °F 30.13 in Calm   3.0 mph 96% 0.00 in -DZ
06:30 37.9 °F 36.9 °F 30.12 in Calm   6.0 mph 96% 0.00 in -DZ
06:40 38.0 °F 37.0 °F 30.12 in Calm   3.0 mph 96% 0.01 in -DZ
06:50 38.2 °F 37.2 °F 30.11 in NW 1.0 mph 7.0 mph 96% 0.00 in -DZ
07:00 38.3 °F 37.3 °F 30.10 in NE 1.0 mph 7.0 mph 96% 0.00 in -DZ
07:10 38.3 °F 37.3 °F 30.10 in Calm   5.0 mph 96% 0.00 in -DZ
07:20 38.3 °F 37.3 °F 30.09 in East 1.0 mph 7.0 mph 96% 0.00 in -DZ
07:30 38.4 °F 37.3 °F 30.09 in NNW 1.0 mph 6.0 mph 96% 0.00 in -DZ
07:40 38.4 °F 37.4 °F 30.08 in ENE 2.0 mph 7.0 mph 96% 0.00 in -DZ
07:50 38.5 °F 37.5 °F 30.07 in Calm   10.0 mph 96% 0.00 in -DZ
08:00 38.5 °F 37.5 °F 30.07 in SE 2.0 mph 12.0 mph 96% 0.00 in -DZ
08:10 38.6 °F 37.6 °F 30.07 in NE 1.0 mph 12.0 mph 96% 0.00 in -DZ
08:20 38.7 °F 37.7 °F 30.07 in East 2.0 mph 7.0 mph 96% 0.00 in -DZ
08:30 38.8 °F 37.8 °F 30.06 in NE 2.0 mph 5.0 mph 96% 0.00 in -DZ
08:40 38.9 °F 37.9 °F 30.06 in WNW 1.0 mph 8.0 mph 96% 0.00 in -DZ
08:50 39.0 °F 38.0 °F 30.06 in NE 2.0 mph 8.0 mph 96% 0.00 in -DZ
09:00 39.0 °F 38.0 °F 30.05 in NE 1.0 mph 6.0 mph 96% 0.00 in -DZ
09:10 39.1 °F 38.1 °F 30.05 in NE 1.0 mph 5.0 mph 96% 0.00 in -DZ
09:20 39.2 °F 38.2 °F 30.04 in ENE 1.0 mph 8.0 mph 96% 0.00 in -DZ
09:30 39.3 °F 38.3 °F 30.04 in SE 1.0 mph 9.0 mph 96% 0.00 in -DZ
09:40 39.5 °F 38.5 °F 30.04 in North 1.0 mph 8.0 mph 96% 0.00 in -DZ
09:50 39.6 °F 38.6 °F 30.03 in NW 1.0 mph 9.0 mph 96% 0.00 in -DZ
10:00 39.9 °F 38.8 °F 30.03 in West 2.0 mph 7.0 mph 96% 0.00 in -DZ
10:10 39.9 °F 38.9 °F 30.02 in WSW 2.0 mph 9.0 mph 96% 0.00 in -DZ
10:20 40.0 °F 38.7 °F 30.01 in WSW 1.0 mph 8.0 mph 95% 0.00 in -DZ
10:30 40.1 °F 38.8 °F 30.00 in NW 2.0 mph 10.0 mph 95% 0.00 in -DZ
10:40 40.3 °F 39.0 °F 29.99 in North 1.0 mph 7.0 mph 95% 0.00 in -DZ
10:50 40.5 °F 39.1 °F 29.98 in North 2.0 mph 7.0 mph 95% 0.00 in -DZ
11:00 40.6 °F 39.3 °F 29.97 in South 1.0 mph 9.0 mph 95% 0.00 in -DZ
11:10 40.7 °F 39.3 °F 29.95 in Calm   9.0 mph 95% 0.00 in -DZ
11:20 40.8 °F 39.5 °F 29.93 in ENE 3.0 mph 9.0 mph 95% 0.00 in -DZ
11:30 40.8 °F 39.5 °F 29.92 in North 2.0 mph 9.0 mph 95% 0.01 in -DZ
11:40 41.0 °F 39.7 °F 29.91 in NE 1.0 mph 8.0 mph 95% 0.00 in -DZ
11:50 41.1 °F 39.8 °F 29.89 in West 1.0 mph 8.0 mph 95% 0.00 in -DZ
12:00 41.1 °F 39.7 °F 29.89 in North 1.0 mph 6.0 mph 95% 0.01 in -DZ
12:10 41.0 °F 39.7 °F 29.88 in NE 3.0 mph 15.0 mph 95% 0.01 in -RA
12:20 41.0 °F 39.7 °F 29.86 in East 2.0 mph 9.0 mph 95% 0.00 in -RA
12:30 41.0 °F 39.7 °F 29.85 in South 1.0 mph 10.0 mph 95% 0.02 in -RA
12:40 41.1 °F 39.8 °F 29.84 in ESE 2.0 mph 8.0 mph 95% 0.01 in -RA
12:50 41.1 °F 39.8 °F 29.83 in East 1.0 mph 7.0 mph 95% 0.01 in -RA
13:00 41.2 °F 39.9 °F 29.82 in North 5.0 mph 12.0 mph 95% 0.02 in -RA
13:10 41.2 °F 39.9 °F 29.81 in East 1.0 mph 12.0 mph 95% 0.01 in -RA
13:20 41.2 °F 39.9 °F 29.79 in NE 3.0 mph 12.0 mph 95% 0.03 in -RA
13:30 41.3 °F 40.0 °F 29.79 in North 1.0 mph 8.0 mph 95% 0.02 in -RA
13:40 41.3 °F 40.0 °F 29.77 in East 1.0 mph 5.0 mph 95% 0.02 in -RA
13:50 41.4 °F 40.1 °F 29.76 in NW 1.0 mph 7.0 mph 95% 0.02 in -RA
14:00 41.4 °F 40.1 °F 29.76 in NNE 1.0 mph 12.0 mph 95% 0.02 in -RA
14:10 41.5 °F 40.2 °F 29.75 in NNW 1.0 mph 12.0 mph 95% 0.01 in RA
14:20 41.5 °F 40.2 °F 29.75 in NE 2.0 mph 7.0 mph 95% 0.02 in RA
14:30 41.6 °F 40.3 °F 29.74 in NE 3.0 mph 7.0 mph 95% 0.01 in RA
14:40 41.7 °F 40.4 °F 29.73 in NNE 1.0 mph 8.0 mph 95% 0.03 in RA
14:50 41.9 °F 40.6 °F 29.72 in WSW 1.0 mph 6.0 mph 95% 0.01 in RA
15:00 41.9 °F 40.6 °F 29.72 in NNW 1.0 mph 7.0 mph 95% 0.02 in RA
15:10 41.9 °F 40.6 °F 29.71 in NE 1.0 mph 8.0 mph 95% 0.00 in OVC
15:20 41.9 °F 40.6 °F 29.70 in NNW 1.0 mph 4.0 mph 95% 0.00 in OVC
15:30 42.0 °F 40.9 °F 29.70 in Calm   4.0 mph 96% 0.00 in OVC
15:40 42.0 °F 40.7 °F 29.69 in Calm   3.0 mph 95% 0.00 in OVC
15:50 42.1 °F 41.0 °F 29.69 in West 3.0 mph 6.0 mph 96% 0.01 in RA
16:00 42.1 °F 41.0 °F 29.68 in NNE 1.0 mph 12.0 mph 96% 0.01 in RA
16:10 42.1 °F 41.0 °F 29.68 in NNW 1.0 mph 6.0 mph 96% 0.01 in RA
16:20 42.1 °F 41.0 °F 29.66 in Calm   5.0 mph 96% 0.03 in RA
16:30 42.1 °F 41.0 °F 29.67 in Calm   2.0 mph 96% 0.02 in RA
16:40 42.0 °F 40.9 °F 29.67 in NNW 2.0 mph 4.0 mph 96% 0.08 in RA
16:50 41.9 °F 40.8 °F 29.62 in Calm   4.0 mph 96% 0.06 in RA
17:00 41.8 °F 40.7 °F 29.62 in Calm   7.0 mph 96% 0.01 in RA
17:10 41.8 °F 40.7 °F 29.62 in ENE 1.0 mph 5.0 mph 96% 0.00 in OVC
17:20 41.8 °F 40.7 °F 29.62 in Calm   4.0 mph 96% 0.00 in OVC
17:30 41.8 °F 40.7 °F 29.62 in Calm   2.0 mph 96% 0.00 in OVC
17:40 41.8 °F 40.7 °F 29.63 in Calm   2.0 mph 96% 0.00 in OVC
17:50 41.8 °F 40.7 °F 29.63 in North 1.0 mph 7.0 mph 96% 0.00 in OVC
18:00 41.8 °F 40.7 °F 29.63 in Calm   3.0 mph 96% 0.01 in RA
18:10 41.7 °F 40.6 °F 29.63 in Calm   1.0 mph 96% 0.01 in RA
18:20 41.4 °F 40.3 °F 29.62 in Calm   1.0 mph 96% 0.01 in RA
18:30 41.0 °F 39.9 °F 29.61 in Calm   1.0 mph 96% 0.01 in RA
18:40 40.6 °F 39.5 °F 29.60 in Calm   2.0 mph 96% 0.00 in OVC
18:50 40.3 °F 39.3 °F 29.59 in Calm   3.0 mph 96% 0.00 in OVC
19:10 40.0 °F 39.0 °F 29.58 in Calm   2.0 mph 96% 0.00 in -DZ
19:20 39.9 °F 38.9 °F 29.57 in NNW 1.0 mph 4.0 mph 96% 0.00 in -DZ
19:30 39.9 °F 38.9 °F 29.56 in Calm   2.0 mph 96% 0.01 in -DZ
19:40 40.0 °F 39.2 °F 29.55 in Calm   1.0 mph 97% 0.00 in -DZ
19:50 40.0 °F 39.2 °F 29.55 in Calm   1.0 mph 97% 0.00 in -DZ
20:00 39.9 °F 39.1 °F 29.54 in Calm   1.0 mph 97% 0.01 in -DZ
20:10 39.9 °F 39.1 °F 29.54 in Calm   1.0 mph 97% 0.00 in -DZ
20:20 39.8 °F 39.0 °F 29.54 in Calm   1.0 mph 97% 0.00 in -DZ
20:30 39.7 °F 38.9 °F 29.52 in Calm   3.0 mph 97% 0.00 in -DZ
20:40 39.7 °F 38.9 °F 29.52 in Calm   4.0 mph 97% 0.00 in -DZ
20:50 39.7 °F 38.9 °F 29.53 in Calm   2.0 mph 97% 0.00 in -DZ
21:00 39.6 °F 38.8 °F 29.53 in Calm   2.0 mph 97% 0.01 in -DZ
21:10 39.5 °F 38.7 °F 29.52 in NNW 1.0 mph 2.0 mph 97% 0.00 in -DZ
21:20 39.4 °F 38.6 °F 29.52 in Calm   2.0 mph 97% 0.00 in -DZ
21:30 39.1 °F 38.3 °F 29.52 in NNW 2.0 mph 3.0 mph 97% 0.00 in -DZ
21:40 38.9 °F 38.1 °F 29.51 in NNW 1.0 mph 5.0 mph 97% 0.00 in -DZ
21:50 38.7 °F 37.9 °F 29.51 in NNW 2.0 mph 5.0 mph 97% 0.00 in -DZ
22:00 38.6 °F 37.8 °F 29.51 in NNW 2.0 mph 2.0 mph 97% 0.00 in -DZ
22:10 38.5 °F 37.7 °F 29.51 in Calm   5.0 mph 97% 0.01 in -DZ
22:20 38.3 °F 37.6 °F 29.51 in NNW 2.0 mph 5.0 mph 97% 0.00 in -DZ
22:30 38.3 °F 37.5 °F 29.51 in NNW 2.0 mph 5.0 mph 97% 0.00 in -DZ
22:40 38.3 °F 37.5 °F 29.51 in North 2.0 mph 4.0 mph 97% 0.00 in -DZ
22:50 38.3 °F 37.5 °F 29.50 in NNW 2.0 mph 4.0 mph 97% 0.00 in -DZ
23:00 38.2 °F 37.4 °F 29.50 in NNW 1.0 mph 5.0 mph 97% 0.01 in -DZ
23:10 38.2 °F 37.4 °F 29.50 in Calm   5.0 mph 97% 0.01 in -DZ
23:20 38.2 °F 37.4 °F 29.50 in NNW 1.0 mph 4.0 mph 97% 0.00 in -DZ
23:30 38.1 °F 37.3 °F 29.49 in Calm   4.0 mph 97% 0.01 in -DZ
23:40 38.1 °F 37.3 °F 29.49 in NW 2.0 mph 4.0 mph 97% 0.00 in -DZ
23:50 38.2 °F 37.4 °F 29.49 in Calm   3.0 mph 97% 0.01 in -DZ
TarryTown NY Weather
Compliments of Weather Underground - 1.75 mb